createdAt,value
2022-12-14T00:01:24.906Z,23.80
2022-12-14T00:03:51.900Z,24.33
2022-12-14T00:06:26.847Z,26.25
2022-12-14T00:08:56.318Z,24.42
2022-12-14T00:11:23.264Z,27.73
2022-12-14T00:13:54.840Z,24.27
2022-12-14T00:16:22.975Z,26.63
2022-12-14T00:18:52.389Z,24.00
2022-12-14T00:21:19.748Z,25.55
2022-12-14T00:23:47.909Z,28.42
2022-12-14T00:26:32.078Z,25.42
2022-12-14T00:29:00.690Z,27.92
2022-12-14T00:31:28.054Z,27.25
2022-12-14T00:33:55.509Z,27.50
2022-12-14T00:36:22.473Z,27.73
2022-12-14T00:38:49.025Z,28.50
2022-12-14T00:41:15.788Z,26.38
2022-12-14T00:43:42.530Z,24.85
2022-12-14T00:46:09.148Z,26.40
2022-12-14T00:48:36.114Z,25.73
2022-12-14T00:51:03.091Z,24.75
2022-12-14T00:53:30.296Z,24.75
2022-12-14T00:55:57.049Z,28.42
2022-12-14T00:58:25.096Z,26.45
2022-12-14T01:01:00.354Z,27.90
2022-12-14T01:03:27.410Z,23.40
2022-12-14T01:05:54.571Z,26.30
2022-12-14T01:08:21.588Z,23.85
2022-12-14T01:10:48.185Z,22.60
2022-12-14T01:13:14.825Z,21.60
2022-12-14T01:15:41.804Z,23.70
2022-12-14T01:18:08.537Z,23.30
2022-12-14T01:20:35.134Z,23.23
2022-12-14T01:23:01.643Z,23.52
2022-12-14T01:25:28.457Z,22.83
2022-12-14T01:27:55.037Z,23.67
2022-12-14T01:30:21.792Z,21.13
2022-12-14T01:32:48.410Z,23.73
2022-12-14T01:35:15.042Z,21.80
2022-12-14T01:37:41.618Z,25.13
2022-12-14T01:40:08.806Z,22.27
2022-12-14T01:42:36.886Z,21.88
2022-12-14T01:45:05.401Z,21.73
2022-12-14T01:47:34.806Z,21.73
2022-12-14T01:50:13.685Z,22.45
2022-12-14T01:52:43.920Z,22.27
2022-12-14T01:55:22.348Z,21.98
2022-12-14T01:58:03.431Z,24.38
2022-12-14T02:00:30.552Z,20.57
2022-12-14T02:03:05.235Z,21.52
2022-12-14T02:05:35.679Z,19.70
2022-12-14T02:08:03.396Z,20.08
2022-12-14T02:10:32.405Z,22.13
2022-12-14T02:13:04.362Z,18.75
2022-12-14T02:15:31.937Z,23.83
2022-12-14T02:17:59.509Z,22.73
2022-12-14T02:20:34.964Z,20.02
2022-12-14T02:23:29.611Z,20.52
2022-12-14T02:26:53.822Z,23.52
2022-12-14T02:29:48.049Z,21.52
2022-12-14T02:32:51.415Z,22.23
2022-12-14T02:35:56.745Z,21.95
2022-12-14T02:38:41.661Z,23.30
2022-12-14T02:41:29.687Z,24.13
2022-12-14T02:44:17.436Z,23.85
2022-12-14T02:46:57.991Z,25.05
2022-12-14T02:49:53.735Z,21.38
2022-12-14T02:52:47.306Z,20.13
2022-12-14T02:55:49.033Z,23.17
2022-12-14T02:58:31.213Z,20.23
2022-12-14T03:00:57.918Z,22.10
2022-12-14T03:03:25.048Z,26.45
2022-12-14T03:06:26.328Z,24.85
2022-12-14T03:09:19.073Z,21.33
2022-12-14T03:11:52.549Z,20.92
2022-12-14T03:14:27.435Z,23.67
2022-12-14T03:17:00.611Z,23.38
2022-12-14T03:19:33.419Z,21.83
2022-12-14T03:22:06.010Z,20.15
2022-12-14T03:24:47.523Z,21.48
2022-12-14T03:27:31.475Z,23.63
2022-12-14T03:30:03.160Z,22.73
2022-12-14T03:32:32.352Z,23.42
2022-12-14T03:35:04.406Z,22.42
2022-12-14T03:37:39.768Z,21.98
2022-12-14T03:40:13.130Z,24.35
2022-12-14T03:43:03.555Z,23.02
2022-12-14T03:45:33.278Z,23.02
2022-12-14T03:48:14.694Z,21.88
2022-12-14T03:50:54.669Z,23.55
2022-12-14T03:53:33.009Z,21.17
2022-12-14T03:56:05.413Z,19.17
2022-12-14T03:59:11.681Z,23.08
2022-12-14T04:01:59.266Z,20.85
2022-12-14T04:04:44.341Z,21.40
2022-12-14T04:07:38.627Z,22.67
2022-12-14T04:10:33.832Z,23.08
2022-12-14T04:13:26.678Z,25.58
2022-12-14T04:16:14.395Z,19.95
2022-12-14T04:19:00.298Z,22.63
2022-12-14T04:21:49.501Z,22.80
2022-12-14T04:24:50.481Z,19.83
2022-12-14T04:27:30.367Z,17.58
2022-12-14T04:30:00.938Z,21.65
2022-12-14T04:32:36.039Z,21.23
2022-12-14T04:35:23.772Z,20.10
2022-12-14T04:38:00.662Z,19.02
2022-12-14T04:40:55.612Z,21.30
2022-12-14T04:43:26.816Z,23.50
2022-12-14T04:46:05.023Z,21.40
2022-12-14T04:48:37.246Z,24.05
2022-12-14T04:51:15.323Z,26.70
2022-12-14T04:53:46.377Z,20.70
2022-12-14T04:56:17.253Z,17.73
2022-12-14T04:58:44.255Z,20.08
2022-12-14T05:01:10.947Z,22.95
2022-12-14T05:03:50.385Z,25.80
2022-12-14T05:06:42.108Z,21.52
2022-12-14T05:09:27.182Z,26.95
2022-12-14T05:12:10.736Z,23.92
2022-12-14T05:14:58.139Z,19.50
2022-12-14T05:17:24.746Z,20.83
2022-12-14T05:19:51.424Z,21.60
2022-12-14T05:22:18.516Z,26.33
2022-12-14T05:24:45.037Z,22.25
2022-12-14T05:27:11.580Z,22.15
2022-12-14T05:29:38.218Z,20.33
2022-12-14T05:32:04.969Z,21.83
2022-12-14T05:34:31.515Z,22.55
2022-12-14T05:36:58.298Z,22.38
2022-12-14T05:39:24.977Z,20.98
2022-12-14T05:41:53.311Z,23.02
2022-12-14T05:44:20.116Z,23.15
2022-12-14T05:46:46.664Z,22.20
2022-12-14T05:49:13.319Z,19.88
2022-12-14T05:51:40.792Z,22.27
2022-12-14T05:54:07.392Z,24.25
2022-12-14T05:56:34.202Z,18.83
2022-12-14T05:59:00.865Z,18.40
2022-12-14T06:01:27.545Z,22.33
2022-12-14T06:03:54.515Z,20.58
2022-12-14T06:06:21.465Z,27.90
2022-12-14T06:08:48.319Z,30.48
2022-12-14T06:11:20.023Z,22.95
2022-12-14T06:13:47.687Z,26.08
2022-12-14T06:16:19.908Z,25.42
2022-12-14T06:18:48.916Z,27.70
2022-12-14T06:21:17.463Z,32.33
2022-12-14T06:23:44.713Z,32.53
2022-12-14T06:26:12.813Z,31.90
2022-12-14T06:28:39.759Z,34.42
2022-12-14T06:31:06.917Z,36.22
2022-12-14T06:33:37.800Z,28.70
2022-12-14T06:36:04.556Z,34.45
2022-12-14T06:38:31.202Z,31.77
2022-12-14T06:40:57.796Z,30.92
2022-12-14T06:43:26.538Z,32.67
2022-12-14T06:45:54.089Z,31.25
2022-12-14T06:48:20.744Z,37.67
2022-12-14T06:50:47.484Z,31.05
2022-12-14T06:53:14.394Z,37.85
2022-12-14T06:55:40.928Z,36.60
2022-12-14T06:58:13.790Z,38.67
2022-12-14T07:00:40.435Z,32.78
2022-12-14T07:03:08.283Z,29.85
2022-12-14T07:05:34.940Z,28.88
2022-12-14T07:08:02.031Z,32.78
2022-12-14T07:10:28.796Z,32.30
2022-12-14T07:12:55.506Z,32.90
2022-12-14T07:15:22.067Z,32.75
2022-12-14T07:17:48.672Z,34.45
2022-12-14T07:20:15.285Z,32.60
2022-12-14T07:22:41.867Z,25.38
2022-12-14T07:25:10.279Z,31.65
2022-12-14T07:27:36.829Z,35.70
2022-12-14T07:30:03.649Z,31.17
2022-12-14T07:32:30.259Z,31.00
2022-12-14T07:34:56.820Z,30.60
2022-12-14T07:37:24.238Z,31.38
2022-12-14T07:39:50.901Z,30.75
2022-12-14T07:42:17.515Z,31.08
2022-12-14T07:44:44.301Z,31.40
2022-12-14T07:47:15.137Z,31.02
2022-12-14T07:49:43.190Z,31.00
2022-12-14T07:52:09.893Z,28.77
2022-12-14T07:54:36.784Z,35.45
2022-12-14T07:57:03.428Z,33.22
2022-12-14T07:59:30.074Z,30.80
2022-12-14T08:01:56.732Z,29.63
2022-12-14T08:04:23.495Z,30.45
2022-12-14T08:06:50.266Z,32.92
2022-12-14T08:09:17.578Z,32.90
2022-12-14T08:11:44.187Z,29.75
2022-12-14T08:14:19.725Z,31.35
2022-12-14T08:16:47.936Z,36.45
2022-12-14T08:19:14.972Z,33.72
2022-12-14T08:21:42.491Z,32.25
2022-12-14T08:24:12.643Z,36.70
2022-12-14T08:26:39.995Z,36.28
2022-12-14T08:29:07.166Z,40.65
2022-12-14T08:31:34.085Z,34.78
2022-12-14T08:34:01.699Z,35.95
2022-12-14T08:36:32.678Z,36.95
2022-12-14T08:39:01.518Z,35.13
2022-12-14T08:41:29.072Z,35.38
2022-12-14T08:44:01.052Z,32.28
2022-12-14T08:46:29.696Z,34.80
2022-12-14T08:48:56.782Z,36.60
2022-12-14T08:51:24.876Z,32.35
2022-12-14T08:53:52.381Z,31.27
2022-12-14T08:56:22.928Z,37.47
2022-12-14T08:58:49.770Z,30.10
2022-12-14T09:01:19.578Z,33.17
2022-12-14T09:03:47.073Z,34.22
2022-12-14T09:06:16.494Z,33.50
2022-12-14T09:08:43.095Z,38.25
2022-12-14T09:11:15.115Z,32.47
2022-12-14T09:13:43.098Z,33.17
2022-12-14T09:16:18.499Z,36.17
2022-12-14T09:18:46.776Z,35.88
2022-12-14T09:21:13.666Z,32.42
2022-12-14T09:23:41.419Z,40.05
2022-12-14T09:26:10.346Z,42.47
2022-12-14T09:28:39.007Z,33.30
2022-12-14T09:31:09.916Z,37.78
2022-12-14T09:33:37.137Z,33.20
2022-12-14T09:36:08.912Z,34.60
2022-12-14T09:38:37.787Z,34.63
2022-12-14T09:41:07.993Z,37.67
2022-12-14T09:43:42.246Z,40.65
2022-12-14T09:46:27.290Z,31.33
2022-12-14T09:48:56.250Z,33.88
2022-12-14T09:51:31.697Z,31.27
2022-12-14T09:54:05.620Z,35.25
2022-12-14T09:56:33.948Z,34.05
2022-12-14T09:59:02.674Z,41.35
2022-12-14T10:01:43.866Z,34.15
2022-12-14T10:04:29.778Z,47.80
2022-12-14T10:07:14.344Z,35.10
2022-12-14T10:09:46.243Z,33.50
2022-12-14T10:15:13.597Z,34.22
2022-12-14T10:17:58.461Z,33.25
2022-12-14T10:20:48.484Z,39.45
2022-12-14T10:23:23.036Z,34.58
2022-12-14T10:25:54.424Z,31.73
2022-12-14T10:28:33.340Z,30.67
2022-12-14T10:31:02.249Z,32.80
2022-12-14T10:33:31.053Z,28.38
2022-12-14T10:36:26.888Z,33.75
2022-12-14T10:39:07.558Z,31.90
2022-12-14T10:41:41.167Z,32.90
2022-12-14T10:44:24.637Z,34.42
2022-12-14T10:47:02.765Z,26.80
2022-12-14T10:49:40.159Z,29.80
2022-12-14T10:52:16.852Z,28.35
2022-12-14T10:54:49.540Z,29.20
2022-12-14T10:57:27.094Z,30.75
2022-12-14T11:00:07.890Z,30.88
2022-12-14T11:02:40.276Z,31.63
2022-12-14T11:05:37.149Z,30.63
2022-12-14T11:08:08.514Z,33.67
2022-12-14T11:10:37.068Z,29.40
2022-12-14T11:13:05.810Z,25.90
2022-12-14T11:15:35.364Z,30.90
2022-12-14T11:18:31.099Z,32.85
2022-12-14T11:21:01.844Z,28.30
2022-12-14T11:23:37.385Z,32.35
2022-12-14T11:26:09.888Z,27.63
2022-12-14T11:28:41.307Z,35.95
2022-12-14T11:31:21.220Z,30.00
2022-12-14T11:33:53.184Z,27.30
2022-12-14T11:39:01.811Z,29.35
2022-12-14T11:41:37.386Z,29.83
2022-12-14T11:44:16.109Z,30.02
2022-12-14T11:46:58.057Z,30.58
2022-12-14T11:52:04.756Z,30.30
2022-12-14T11:54:41.681Z,41.72
2022-12-14T11:57:19.190Z,31.20
2022-12-14T11:59:49.341Z,30.10
2022-12-14T12:02:18.941Z,28.13
2022-12-14T12:04:50.789Z,33.72
2022-12-14T12:07:42.604Z,29.27
2022-12-14T12:10:24.516Z,29.83
2022-12-14T12:12:54.714Z,29.60
2022-12-14T12:15:26.899Z,27.83
2022-12-14T12:17:59.216Z,32.47
2022-12-14T12:20:35.562Z,30.55
2022-12-14T12:23:16.873Z,29.58
2022-12-14T12:25:47.216Z,27.80
2022-12-14T12:28:26.381Z,31.58
2022-12-14T12:30:56.604Z,28.10
2022-12-14T12:33:29.151Z,29.65
2022-12-14T12:35:59.943Z,26.60
2022-12-14T12:39:08.679Z,33.80
2022-12-14T12:42:05.516Z,32.65
2022-12-14T12:45:11.346Z,27.90
2022-12-14T12:47:47.553Z,31.13
2022-12-14T12:50:21.714Z,25.40
2022-12-14T12:53:17.671Z,26.70
2022-12-14T12:55:50.400Z,30.33
2022-12-14T12:58:22.740Z,28.75
2022-12-14T13:00:54.664Z,27.73
2022-12-14T13:06:06.123Z,28.52
2022-12-14T13:08:39.271Z,29.98
2022-12-14T13:11:26.053Z,25.75
2022-12-14T13:13:57.743Z,28.88
2022-12-14T13:16:35.102Z,27.02
2022-12-14T13:19:48.342Z,33.25
2022-12-14T13:22:05.899Z,27.45
2022-12-14T13:24:33.846Z,33.13
2022-12-14T13:27:06.216Z,26.67
2022-12-14T13:29:44.054Z,29.88
2022-12-14T13:32:37.560Z,30.05
2022-12-14T13:35:30.352Z,26.48
2022-12-14T13:38:15.529Z,24.77
2022-12-14T13:40:47.993Z,29.27
2022-12-14T13:43:29.418Z,28.73
2022-12-14T13:45:56.312Z,28.90
2022-12-14T13:48:24.425Z,29.27
2022-12-14T13:51:02.263Z,29.85
2022-12-14T13:53:48.493Z,28.98
2022-12-14T13:56:26.512Z,31.02
2022-12-14T13:59:00.487Z,37.80
2022-12-14T14:01:46.154Z,35.38
2022-12-14T14:04:14.112Z,26.45
2022-12-14T14:06:42.749Z,33.38
2022-12-14T14:09:33.427Z,31.00
2022-12-14T14:12:01.796Z,28.63
2022-12-14T14:14:34.390Z,29.70
2022-12-14T14:17:11.379Z,29.73
2022-12-14T14:19:41.430Z,31.60
2022-12-14T14:22:27.572Z,30.92
2022-12-14T14:25:09.385Z,28.48
2022-12-14T14:27:39.367Z,30.00
2022-12-14T14:30:43.181Z,30.05
2022-12-14T14:33:45.651Z,34.83
2022-12-14T14:36:33.412Z,38.65
2022-12-14T14:39:24.456Z,32.25
2022-12-14T14:41:53.585Z,32.92
2022-12-14T14:44:29.608Z,29.88
2022-12-14T14:46:57.000Z,32.08
2022-12-14T14:49:36.632Z,34.33
2022-12-14T14:52:44.628Z,33.70
2022-12-14T14:55:52.201Z,33.58
2022-12-14T14:58:23.888Z,27.15
2022-12-14T15:01:17.618Z,36.47
2022-12-14T15:03:47.195Z,31.27
2022-12-14T15:06:16.977Z,28.80
2022-12-14T15:08:47.812Z,27.80
2022-12-14T15:11:20.440Z,27.77
2022-12-14T15:14:24.609Z,34.15
2022-12-14T15:16:51.202Z,34.90
2022-12-14T15:19:26.531Z,32.88
2022-12-14T15:21:57.574Z,36.75
2022-12-14T15:24:25.439Z,31.47
2022-12-14T15:26:53.047Z,29.55
2022-12-14T15:29:26.503Z,32.05
2022-12-14T15:31:59.863Z,36.63
2022-12-14T15:34:27.571Z,29.65
2022-12-14T15:36:54.839Z,33.67
2022-12-14T15:39:40.185Z,34.63
2022-12-14T15:42:17.290Z,34.17
2022-12-14T15:44:51.951Z,35.13
2022-12-14T15:47:26.889Z,41.40
2022-12-14T15:49:59.756Z,38.95
2022-12-14T15:52:31.133Z,40.80
2022-12-14T15:54:59.538Z,39.03
2022-12-14T15:57:26.344Z,40.38
2022-12-14T15:59:57.645Z,41.05
2022-12-14T16:02:34.173Z,38.38
2022-12-14T16:05:03.315Z,44.83
2022-12-14T16:07:42.972Z,40.55
2022-12-14T16:10:33.291Z,40.17
2022-12-14T16:13:09.158Z,38.88
2022-12-14T16:15:36.127Z,40.88
2022-12-14T16:18:03.607Z,35.40
2022-12-14T16:20:33.209Z,46.17
2022-12-14T16:23:22.238Z,42.38
2022-12-14T16:25:58.215Z,65.25
2022-12-14T16:28:34.246Z,92.35
2022-12-14T16:31:19.774Z,56.53
2022-12-14T16:33:50.118Z,45.15
2022-12-14T16:36:28.147Z,42.83
2022-12-14T16:39:00.179Z,53.78
2022-12-14T16:41:37.005Z,52.20
2022-12-14T16:44:07.384Z,37.28
2022-12-14T16:46:34.128Z,39.47
2022-12-14T16:49:40.722Z,40.75
2022-12-14T16:52:10.064Z,42.97
2022-12-14T16:54:38.095Z,42.53
2022-12-14T16:57:06.238Z,39.60
2022-12-14T16:59:35.918Z,44.42
2022-12-14T17:02:03.214Z,41.95
2022-12-14T17:04:35.318Z,38.40
2022-12-14T17:07:02.549Z,48.42
2022-12-14T17:09:33.349Z,40.55
2022-12-14T17:12:02.519Z,42.60
2022-12-14T17:14:29.128Z,42.95
2022-12-14T17:17:01.035Z,43.28
2022-12-14T17:19:37.342Z,41.33
2022-12-14T17:22:06.552Z,44.47
2022-12-14T17:24:35.905Z,43.47
2022-12-14T17:27:02.620Z,46.78
2022-12-14T17:29:30.169Z,43.80
2022-12-14T17:32:01.092Z,46.92
2022-12-14T17:34:29.599Z,43.87
2022-12-14T17:36:56.463Z,45.63
2022-12-14T17:39:24.800Z,47.63
2022-12-14T17:41:52.049Z,47.75
2022-12-14T17:44:20.627Z,39.85
2022-12-14T17:46:49.957Z,46.17
2022-12-14T17:49:33.928Z,39.70
2022-12-14T17:52:07.120Z,44.83
2022-12-14T17:54:34.060Z,39.83
2022-12-14T17:57:00.903Z,40.20
2022-12-14T17:59:28.097Z,38.85
2022-12-14T18:01:54.705Z,40.83
2022-12-14T18:04:21.383Z,39.28
2022-12-14T18:06:47.977Z,37.88
2022-12-14T18:09:16.103Z,38.45
2022-12-14T18:12:00.529Z,42.00
2022-12-14T18:14:29.210Z,42.17
2022-12-14T18:16:56.194Z,39.90
2022-12-14T18:19:22.746Z,40.83
2022-12-14T18:21:49.292Z,40.78
2022-12-14T18:24:19.075Z,41.17
2022-12-14T18:26:47.979Z,43.22
2022-12-14T18:29:15.748Z,52.15
2022-12-14T18:31:43.226Z,43.47
2022-12-14T18:34:12.035Z,41.42
2022-12-14T18:36:39.194Z,45.28
2022-12-14T18:39:07.250Z,41.15
2022-12-14T18:41:33.879Z,43.53
2022-12-14T18:44:01.294Z,44.45
2022-12-14T18:46:28.182Z,44.58
2022-12-14T18:48:55.041Z,43.38
2022-12-14T18:51:23.803Z,39.47
2022-12-14T18:53:51.231Z,45.97
2022-12-14T18:56:18.846Z,39.83
2022-12-14T18:58:46.482Z,47.13
2022-12-14T19:01:16.095Z,46.83
2022-12-14T19:03:43.726Z,44.50
2022-12-14T19:09:02.324Z,47.72
2022-12-14T19:11:33.212Z,44.53
2022-12-14T19:14:00.115Z,52.43
2022-12-14T19:16:26.917Z,52.53
2022-12-14T19:18:53.580Z,51.13
2022-12-14T19:21:20.146Z,48.53
2022-12-14T19:23:46.947Z,46.50
2022-12-14T19:26:13.540Z,49.40
2022-12-14T19:28:40.181Z,44.08
2022-12-14T19:31:10.325Z,44.28
2022-12-14T19:33:37.191Z,43.92
2022-12-14T19:36:08.110Z,46.92
2022-12-14T19:38:35.809Z,30.27
2022-12-14T19:41:08.243Z,44.38
2022-12-14T19:43:35.409Z,49.00
2022-12-14T19:46:10.323Z,43.58
2022-12-14T19:48:38.173Z,45.63
2022-12-14T19:51:13.140Z,42.50
2022-12-14T19:53:42.633Z,49.15
2022-12-14T19:56:10.005Z,46.25
2022-12-14T19:58:36.899Z,45.00
2022-12-14T20:01:08.253Z,43.17
2022-12-14T20:03:35.486Z,42.10
2022-12-14T20:06:04.400Z,50.88
2022-12-14T20:08:31.753Z,50.28
2022-12-14T20:10:59.000Z,49.35
2022-12-14T20:13:26.921Z,54.70
2022-12-14T20:15:58.304Z,46.17
2022-12-14T20:18:26.237Z,44.53
2022-12-14T20:20:53.242Z,48.17
2022-12-14T20:23:22.136Z,44.55
2022-12-14T20:25:49.516Z,47.13
2022-12-14T20:28:16.302Z,51.53
2022-12-14T20:30:47.430Z,48.35
2022-12-14T20:33:14.471Z,45.55
2022-12-14T20:35:41.052Z,50.58
2022-12-14T20:38:07.656Z,50.33
2022-12-14T20:40:38.634Z,51.20
2022-12-14T20:43:06.648Z,49.55
2022-12-14T20:45:38.460Z,57.83
2022-12-14T20:50:31.864Z,47.40
2022-12-14T20:52:58.440Z,55.70
2022-12-14T20:55:25.013Z,51.95
2022-12-14T20:57:51.578Z,52.47
2022-12-14T21:00:18.825Z,51.33
2022-12-14T21:02:45.552Z,53.53
2022-12-14T21:05:12.333Z,55.72
2022-12-14T21:07:39.056Z,48.10
2022-12-14T21:10:07.127Z,48.75
2022-12-14T21:12:34.476Z,48.22
2022-12-14T21:15:01.442Z,52.30
2022-12-14T21:17:29.675Z,63.28
2022-12-14T21:19:57.265Z,55.33
2022-12-14T21:22:26.739Z,48.63
2022-12-14T21:25:03.542Z,52.40
2022-12-14T21:27:32.788Z,53.78
2022-12-14T21:30:00.513Z,79.38
2022-12-14T21:32:27.879Z,66.78
2022-12-14T21:34:54.529Z,54.75
2022-12-14T21:37:21.987Z,57.00
2022-12-14T21:39:55.086Z,51.65
2022-12-14T21:42:23.900Z,50.63
2022-12-14T21:44:51.922Z,54.85
2022-12-14T21:47:24.329Z,50.47
2022-12-14T21:49:50.930Z,55.05
2022-12-14T21:52:20.378Z,51.70
2022-12-14T21:54:46.987Z,51.17
2022-12-14T21:57:34.866Z,51.95
2022-12-14T22:00:02.086Z,53.20
2022-12-14T22:02:29.153Z,56.13
2022-12-14T22:04:56.362Z,53.03
2022-12-14T22:07:30.740Z,53.25
2022-12-14T22:09:57.624Z,51.58
2022-12-14T22:12:25.305Z,50.95
2022-12-14T22:14:51.982Z,56.33
2022-12-14T22:17:18.847Z,50.92
2022-12-14T22:19:45.382Z,51.22
2022-12-14T22:22:16.087Z,48.30
2022-12-14T22:24:43.309Z,50.17
2022-12-14T22:27:11.527Z,49.30
2022-12-14T22:29:38.320Z,54.42
2022-12-14T22:32:05.615Z,50.83
2022-12-14T22:34:32.208Z,53.33
2022-12-14T22:36:58.765Z,50.72
2022-12-14T22:39:25.349Z,51.83
2022-12-14T22:41:52.004Z,48.75
2022-12-14T22:44:18.534Z,51.92
2022-12-14T22:46:45.203Z,52.97
2022-12-14T22:49:16.508Z,53.80
2022-12-14T22:51:43.329Z,46.10
2022-12-14T22:54:20.891Z,50.92
2022-12-14T22:56:57.198Z,49.67
2022-12-14T22:59:38.765Z,51.30
2022-12-14T23:02:05.703Z,50.03
2022-12-14T23:04:32.424Z,51.53
2022-12-14T23:06:59.086Z,54.28
2022-12-14T23:09:44.464Z,54.33
2022-12-14T23:12:29.615Z,47.50
2022-12-14T23:15:15.139Z,46.50
2022-12-14T23:18:00.188Z,45.15
2022-12-14T23:20:45.437Z,47.63
2022-12-14T23:23:30.548Z,48.70
2022-12-14T23:26:20.510Z,48.35
2022-12-14T23:29:05.307Z,48.42
2022-12-14T23:31:50.113Z,48.90
2022-12-14T23:34:35.136Z,49.78
2022-12-14T23:37:20.751Z,49.78
2022-12-14T23:40:06.667Z,46.33
2022-12-14T23:42:51.882Z,40.78
2022-12-14T23:45:37.423Z,49.13
2022-12-14T23:48:22.684Z,45.55
2022-12-14T23:51:08.056Z,55.55
2022-12-14T23:53:52.832Z,51.15
2022-12-14T23:56:38.167Z,44.50
2022-12-14T23:59:27.929Z,50.53
